Latest Weather Observations for Yarram Airport

IDV60801

Issued at 12:42 pm EST Saturday 1 October 2022 (issued every 10 minutes, with the page automatically refreshed every 10 minutes)

About weather observations | Map of weather stations | Latest weather observations for VIC | Other Formats
Station Details ID: 085151 Name: YARRAM AIRPORT Lat: -38.56 Lon: 146.75 Height: 17.9 m
Data from the previous 72 hours. | See also: Recent months at Yarram Airport
Date/Time
EST
Temp
°C
App
Temp
°C
Dew
Point
°C
Rel
Hum
%
Delta-T
°C
Wind Press
QNH
hPa
Press
MSL
hPa
Rain since
9am
mm
Dir  Spd
km/h
Gust
km/h
Spd
kts
Gust
kts
01/12:30pm 15.6 11.2 7.4 58 4.0 E 20 30 11 16 1025.0 1025.0 0.0
01/12:00pm 15.4 11.0 7.2 58 4.0 E 20 35 11 19 1025.5 1025.5 0.0
01/11:30am 15.0 11.5 8.9 67 3.1 ENE 17 26 9 14 1025.9 1025.9 0.0
01/11:00am 14.1 10.2 7.2 63 3.4 ENE 17 26 9 14 1026.3 1026.3 0.0
01/10:30am 13.5 9.4 7.7 68 2.9 E 19 26 10 14 1026.7 1026.7 0.0
01/10:00am 14.6 10.6 8.1 65 3.2 E 19 28 10 15 1026.9 1027.0 0.0
01/09:30am 13.9 9.5 7.2 64 3.3 E 20 32 11 17 1027.0 1027.1 0.0
01/09:00am 15.1 11.1 9.0 67 3.1 E 20 26 11 14 1027.3 1027.3 0.2
01/08:30am 14.3 10.4 8.5 68 2.9 E 19 26 10 14 1027.4 1027.4 0.2
01/08:00am 13.2 11.2 8.7 74 2.2 ENE 9 17 5 9 1027.6 1027.6 0.2
01/07:30am 10.8 9.6 9.6 92 0.6 NE 6 9 3 5 1027.8 1027.8 0.2
01/07:00am 7.8 6.3 6.9 94 0.4 N 4 7 2 4 1027.9 1027.9 0.2
01/06:30am 7.3 5.3 6.4 94 0.4 NE 6 7 3 4 1027.7 1027.7 0.2
01/06:00am 6.0 3.7 4.8 92 0.5 N 6 7 3 4 1027.6 1027.6 0.2
01/05:30am 5.6 3.5 3.9 89 0.7 N 4 9 2 5 1027.3 1027.3 0.2
01/05:00am 8.1 7.3 6.6 90 0.7 CALM 0 0 0 0 1027.3 1027.3 0.2
01/04:30am 8.0 6.7 6.0 87 0.9 NE 2 7 1 4 1027.2 1027.2 0.2
01/04:00am 8.2 5.9 5.8 85 1.1 NE 7 11 4 6 1027.4 1027.4 0.2
01/03:30am 8.7 6.4 5.6 81 1.4 ENE 7 9 4 5 1027.7 1027.7 0.2
01/03:00am 9.7 6.6 5.5 75 1.9 E 11 15 6 8 1027.8 1027.8 0.2
01/02:30am 10.1 7.2 6.4 78 1.7 ENE 11 15 6 8 1027.9 1027.9 0.2
01/02:00am 10.7 7.4 6.6 76 1.9 E 13 20 7 11 1028.2 1028.2 0.2
01/01:30am 11.4 7.5 7.1 75 2.1 E 17 24 9 13 1028.5 1028.5 0.2
01/01:00am 11.6 8.7 8.3 80 1.6 E 13 20 7 11 1028.8 1028.8 0.2
01/12:30am 11.4 8.8 7.9 79 1.7 ENE 11 15 6 8 1029.0 1029.0 0.2
01/12:00am 11.5 8.6 8.0 79 1.7 E 13 17 7 9 1029.2 1029.2 0.2
 
Date/Time
EST
Temp
°C
App
Temp
°C
Dew
Point
°C
Rel
Hum
%
Delta-T
°C
Wind Press
QNH
hPa
Press
MSL
hPa
Rain since
9am
mm
Dir  Spd
km/h
Gust
km/h
Spd
kts
Gust
kts
30/11:30pm 11.2 8.8 8.8 85 1.2 ENE 11 17 6 9 1029.3 1029.3 0.2
30/11:00pm 11.1 8.7 8.8 86 1.1 NE 11 19 6 10 1029.4 1029.4 0.2
30/10:30pm 11.0 8.0 9.3 89 0.9 NE 15 19 8 10 1029.5 1029.5 0.2
30/10:00pm 10.5 7.9 9.3 92 0.6 NE 13 20 7 11 1029.8 1029.8 0.2
30/09:30pm 9.7 8.0 8.5 92 0.6 ENE 7 11 4 6 1030.1 1030.1 0.2
30/09:00pm 8.4 6.0 6.9 90 0.7 E 9 11 5 6 1030.3 1030.3 0.2
30/08:30pm 9.4 7.2 7.8 90 0.8 E 9 11 5 6 1030.3 1030.3 0.2
30/08:00pm 9.8 7.7 8.2 90 0.8 E 9 13 5 7 1030.2 1030.2 0.2
30/07:30pm 10.3 8.3 8.6 89 0.8 E 9 13 5 7 1030.1 1030.1 0.0
30/07:00pm 11.3 8.3 9.2 87 1.0 E 15 22 8 12 1030.0 1030.0 0.0
30/06:30pm 11.5 8.8 9.1 85 1.2 E 13 17 7 9 1030.0 1030.0 0.0
30/06:00pm 12.1 9.4 9.1 82 1.5 E 13 20 7 11 1029.9 1029.9 0.0
30/05:30pm 12.4 8.8 8.3 76 2.0 E 17 24 9 13 1029.7 1029.7 0.0
30/05:00pm 13.3 9.2 8.8 74 2.2 E 20 32 11 17 1029.7 1029.7 0.0
30/04:30pm 13.9 9.3 8.1 68 2.9 E 22 35 12 19 1029.8 1029.8 0.0
30/04:00pm 14.3 9.3 8.0 66 3.1 ESE 24 35 13 19 1029.9 1029.9 0.0
30/03:30pm 14.2 9.1 7.7 65 3.2 E 24 35 13 19 1030.2 1030.2 0.0
30/03:00pm 14.0 9.1 8.6 70 2.7 ESE 24 33 13 18 1030.3 1030.3 0.0
30/02:30pm 14.1 8.3 8.1 67 3.0 ESE 28 41 15 22 1030.4 1030.4 0.0
30/02:00pm 14.6 9.4 8.8 68 2.9 E 26 37 14 20 1030.5 1030.5 0.0
30/01:30pm 15.6 10.5 9.3 66 3.2 E 26 39 14 21 1030.6 1030.6 0.0
30/01:00pm 15.4 9.0 8.4 63 3.5 ESE 32 41 17 22 1030.9 1030.9 0.0
30/12:30pm 15.7 10.6 9.1 65 3.4 E 26 39 14 21 1031.1 1031.1 0.0
30/12:00pm 14.7 9.1 8.6 67 3.1 ESE 28 39 15 21 1031.3 1031.3 0.0
30/11:30am 15.2 10.0 8.9 66 3.2 E 26 37 14 20 1031.4 1031.4 0.0
30/11:00am 15.1 9.2 9.0 67 3.1 ESE 30 41 16 22 1031.6 1031.6 0.0
30/10:30am 14.9 9.3 8.8 67 3.1 E 28 46 15 25 1031.7 1031.7 0.0
30/10:00am 14.7 9.2 9.3 70 2.7 ESE 28 46 15 25 1031.8 1031.8 0.0
30/09:52am 14.5 8.9 8.7 68 2.9 ESE 28 46 15 25 1031.8 1031.8 0.0
30/09:30am 14.7 9.7 9.7 72 2.6 E 26 39 14 21 1031.8 1031.8 0.0
30/09:00am 14.4 9.4 9.4 72 2.5 ESE 26 37 14 20 1031.7 1031.7 2.0
30/08:30am 13.9 8.7 8.7 71 2.6 E 26 39 14 21 1031.6 1031.6 2.0
30/08:00am 13.5 8.3 9.0 74 2.3 ESE 26 39 14 21 1031.2 1031.2 2.0
30/07:30am 12.8 8.0 8.9 77 2.0 ESE 24 35 13 19 1030.9 1030.9 2.0
30/07:00am 12.3 7.4 8.4 77 1.9 E 24 37 13 20 1030.8 1030.8 2.0
30/06:30am 12.1 7.8 8.0 76 2.0 E 20 35 11 19 1030.4 1030.4 2.0
30/06:00am 12.0 7.1 8.3 78 1.8 ESE 24 35 13 19 1030.0 1030.0 2.0
30/05:30am 11.9 6.5 8.0 77 1.9 ESE 26 37 14 20 1029.6 1029.6 2.0
30/05:00am 12.0 7.2 8.7 80 1.6 ESE 24 43 13 23 1029.4 1029.4 2.0
30/04:30am 11.9 7.6 8.0 77 1.9 ESE 20 33 11 18 1029.2 1029.2 2.0
30/04:00am 11.8 6.8 7.9 77 1.9 E 24 35 13 19 1029.1 1029.1 2.0
30/03:30am 11.6 6.7 8.5 81 1.5 ESE 24 39 13 21 1028.8 1028.8 2.0
30/03:00am 11.4 5.5 9.1 86 1.1 ESE 30 39 16 21 1028.8 1028.8 2.0
30/02:30am 11.4 6.6 10.3 93 0.6 ESE 26 33 14 18 1029.0 1029.0 2.0
30/02:00am 11.5 7.1 10.4 93 0.6 ESE 24 32 13 17 1029.1 1029.1 2.0
30/01:30am 11.5 8.9 10.6 94 0.5 E 15 24 8 13 1029.0 1029.0 2.0
30/01:00am 11.9 8.3 10.5 91 0.7 ESE 20 32 11 17 1029.2 1029.2 1.2
30/12:30am 11.7 7.4 10.8 94 0.5 ESE 24 33 13 18 1029.2 1029.2 1.2
30/12:00am 11.4 5.9 10.6 95 0.4 ESE 30 44 16 24 1029.2 1029.2 1.2
 
Date/Time
EST
Temp
°C
App
Temp
°C
Dew
Point
°C
Rel
Hum
%
Delta-T
°C
Wind Press
QNH
hPa
Press
MSL
hPa
Rain since
9am
mm
Dir  Spd
km/h
Gust
km/h
Spd
kts
Gust
kts
29/11:30pm 11.6 8.3 11.0 96 0.3 E 19 32 10 17 1029.2 1029.2 1.2
29/11:00pm 11.6 6.6 11.0 96 0.3 ESE 28 39 15 21 1029.4 1029.4 0.4
29/10:55pm 11.7 7.9 11.1 96 0.3 ESE 22 32 12 17 1029.4 1029.4 0.0
29/10:30pm 11.2 10.0 10.4 95 0.4 ESE 7 7 4 4 1029.4 1029.4 0.0
29/10:00pm 11.0 9.7 9.9 93 0.6 ESE 7 11 4 6 1029.5 1029.5 0.0
29/09:30pm 11.5 10.5 10.4 93 0.6 NE 6 7 3 4 1029.2 1029.2 0.0
29/09:00pm 11.5 11.6 10.2 92 0.7 CALM 0 0 0 0 1029.2 1029.2 0.0
29/08:30pm 11.3 10.0 10.0 92 0.7 ESE 7 9 4 5 1028.9 1028.9 0.0
29/08:00pm 10.9 9.4 9.3 90 0.8 E 7 11 4 6 1028.9 1028.9 0.0
29/07:30pm 11.1 9.3 9.4 89 0.9 SE 9 11 5 6 1028.6 1028.6 0.0
29/07:00pm 12.3 10.8 10.4 88 1.0 SE 9 11 5 6 1028.3 1028.3 0.0
29/06:30pm 12.6 10.7 10.5 87 1.1 SE 11 13 6 7 1028.0 1028.0 0.0
29/06:00pm 12.8 11.3 10.5 86 1.2 ESE 9 15 5 8 1027.9 1027.9 0.0
29/05:30pm 12.6 10.3 10.3 86 1.2 ESE 13 15 7 8 1027.7 1027.7 0.0
29/05:00pm 13.5 10.4 10.3 81 1.7 ESE 17 20 9 11 1027.4 1027.4 0.0
29/04:30pm 13.9 10.4 10.3 79 1.9 ESE 19 20 10 11 1027.0 1027.1 0.0
29/04:00pm 14.2 10.9 9.4 73 2.4 ESE 17 22 9 12 1026.7 1026.8 0.0
29/03:30pm 14.6 11.3 9.4 71 2.7 ESE 17 22 9 12 1026.6 1026.7 0.0
29/03:00pm 15.6 12.0 9.7 68 3.0 ESE 19 26 10 14 1026.6 1026.7 0.0
29/02:30pm 16.5 13.5 10.6 68 3.1 ESE 17 28 9 15 1026.5 1026.6 0.0
29/02:00pm 15.8 12.6 10.1 69 3.0 ESE 17 24 9 13 1026.5 1026.6 0.0
29/01:30pm 16.2 12.8 10.7 70 2.9 ESE 19 28 10 15 1026.5 1026.6 0.0
29/01:00pm 15.7 12.0 10.0 69 3.0 ESE 20 28 11 15 1026.4 1026.5 0.0
29/12:30pm 15.4 11.8 10.0 70 2.8 ESE 19 28 10 15 1026.5 1026.6 0.0
29/12:00pm 15.3 12.2 10.3 72 2.6 SE 17 26 9 14 1026.3 1026.4 0.0
29/11:30am 15.8 12.2 9.9 68 3.1 ESE 19 28 10 15 1026.2 1026.3 0.0
29/11:00am 15.3 12.9 9.9 70 2.8 ESE 13 19 7 10 1026.1 1026.2 0.0
29/10:30am 14.4 13.3 10.6 78 2.0 ESE 7 15 4 8 1026.2 1026.3 0.0
29/10:00am 14.7 14.6 12.0 84 1.5 WSW 4 11 2 6 1026.2 1026.3 0.0
29/09:30am 13.0 11.5 10.5 85 1.3 SW 9 13 5 7 1026.0 1026.1 0.0
29/09:00am 13.0 11.2 10.7 86 1.2 W 11 17 6 9 1025.9 1026.0 0.4
29/08:30am 11.4 9.7 9.8 90 0.8 W 9 11 5 6 1025.7 1025.8 0.2
29/08:00am 11.2 9.1 9.6 90 0.8 WNW 11 13 6 7 1025.5 1025.6 0.2
29/07:30am 10.6 8.7 9.2 91 0.7 WNW 9 11 5 6 1025.2 1025.3 0.2
29/07:00am 10.3 8.4 9.2 93 0.5 WNW 9 11 5 6 1024.9 1025.0 0.2
29/06:30am 10.0 8.5 9.1 94 0.4 W 7 9 4 5 1024.6 1024.7 0.2
29/06:00am 9.6 7.6 8.7 94 0.4 W 9 11 5 6 1024.2 1024.3 0.2
29/05:30am 9.3 6.8 8.2 93 0.5 W 11 13 6 7 1023.7 1023.8 0.2
29/05:00am 9.9 7.5 8.8 93 0.5 WNW 11 15 6 8 1023.3 1023.4 0.2
29/04:30am 10.1 8.2 9.2 94 0.4 W 9 13 5 7 1023.2 1023.3 0.2
29/04:00am 9.9 7.2 9.1 95 0.4 W 13 15 7 8 1022.9 1023.0 0.2
29/03:30am 9.6 7.2 8.8 95 0.4 WNW 11 13 6 7 1022.6 1022.7 0.2
29/03:00am 10.1 8.3 9.3 95 0.4 W 9 11 5 6 1022.6 1022.7 0.2
29/02:30am 10.3 8.1 9.5 95 0.4 WNW 11 13 6 7 1022.6 1022.7 0.2
29/02:00am 10.4 8.3 9.8 96 0.3 W 11 15 6 8 1022.5 1022.6 0.2
29/01:30am 10.1 7.5 9.5 96 0.3 WNW 13 15 7 8 1022.4 1022.5 0.2
29/01:00am 10.6 8.2 10.1 97 0.3 WNW 13 13 7 7 1022.6 1022.7 0.2
29/12:30am 10.0 8.6 9.5 97 0.2 NW 7 11 4 6 1022.6 1022.7 0.2
29/12:00am 9.1 7.4 8.5 96 0.3 WNW 7 7 4 4 1022.4 1022.5 0.2
 
Date/Time
EST
Temp
°C
App
Temp
°C
Dew
Point
°C
Rel
Hum
%
Delta-T
°C
Wind Press
QNH
hPa
Press
MSL
hPa
Rain since
9am
mm
Dir  Spd
km/h
Gust
km/h
Spd
kts
Gust
kts
28/11:30pm 9.0 6.5 8.4 96 0.3 WNW 11 13 6 7 1022.1 1022.2 0.2
28/11:00pm 8.9 6.4 8.1 95 0.4 WNW 11 11 6 6 1021.9 1022.0 0.2
28/10:30pm 8.8 6.9 7.7 93 0.5 W 7 9 4 5 1022.0 1022.1 0.2
28/10:00pm 9.6 7.9 8.5 93 0.5 W 7 9 4 5 1021.9 1022.0 0.2
28/09:30pm 10.5 9.0 9.3 92 0.6 W 7 13 4 7 1021.7 1021.8 0.2
28/09:00pm 11.4 11.5 10.0 91 0.7 CALM 0 0 0 0 1021.6 1021.7 0.2
28/08:30pm 12.0 10.9 10.6 91 0.7 WNW 7 9 4 5 1021.7 1021.8 0.2
28/08:00pm 12.3 10.9 10.9 91 0.7 WSW 9 13 5 7 1021.6 1021.7 0.2
28/07:30pm 12.2 9.6 10.8 91 0.7 WSW 15 19 8 10 1021.1 1021.2 0.2
28/07:00pm 11.9 10.9 11.0 94 0.5 WSW 7 11 4 6 1020.6 1020.7 0.2
28/06:30pm 11.1 9.7 9.7 91 0.7 SSW 7 9 4 5 1020.2 1020.3 0.2
28/06:00pm 11.6 9.1 9.7 88 1.0 S 13 13 7 7 1019.7 1019.8 0.2
28/05:30pm 13.6 10.6 10.8 83 1.5 S 17 20 9 11 1019.5 1019.6 0.2
28/05:00pm 14.7 12.1 10.7 77 2.1 S 15 20 8 11 1019.3 1019.4 0.2
28/04:30pm 15.3 13.1 10.9 75 2.3 S 13 19 7 10 1018.9 1018.9 0.2
28/04:00pm 15.2 12.6 10.8 75 2.3 SSE 15 19 8 10 1018.8 1018.8 0.2
28/03:30pm 15.3 12.1 10.1 71 2.7 SSE 17 22 9 12 1018.6 1018.6 0.2
28/03:00pm 15.8 12.5 10.8 72 2.7 SSE 19 26 10 14 1018.6 1018.6 0.2
28/02:30pm 15.8 12.3 10.3 70 2.9 SSE 19 24 10 13 1018.5 1018.5 0.2
28/02:00pm 16.0 12.6 10.7 71 2.8 S 19 24 10 13 1018.4 1018.4 0.2
28/01:30pm 16.5 13.3 11.9 74 2.5 SSE 20 26 11 14 1018.3 1018.3 0.0
28/01:00pm 16.2 13.2 11.8 75 2.4 SSE 19 24 10 13 1018.4 1018.4 0.0

Other formats

Comma delimited format used in spreadsheet applications
http://www.bom.gov.au/fwo/IDV60801/IDV60801.95890.axf

JavaScript Object Notation format (JSON) in row-major order
http://www.bom.gov.au/fwo/IDV60801/IDV60801.95890.json

Data quality

Most of these data are generated automatically and are frequently updated. Quality checks on data are not normally performed. It is possible for incorrect values to appear. Refer to information at About Latest Weather Observations and please check the disclaimer before using these data.